Aérodrome :
LOGIN :

S'inscrire | Disclaimer

   EN    FR    IT 

 










Légende :    VFR   VFR Marginal   IFR   IFR Intensif   IFR Très Intensif
Visi : 
Plafond : 
>= 8 km
>= 3000ft
5 à 8 km
1000 à 3000 ft
1500m à 5 km
500 à 1000 ft
800 à 1500m
200 à 500 ft
< 800m
< 200 ft
Symboles :   Orages  Brouillard  Fortes neiges  Fortes précipitations  Vent > 20 kt
SIGMETs :   Divers  Orages  Givrage  Turbulence  Onde Orograph.  Cendres Volcan.






- Altitude de l'aérodrome : 353 ft
- Code IATA : ZAG


LDZA - Zagreb Pleso

DERNIER METAR :
  • 312200Z 00000KT CAVOK 09/07 Q1023 NOSIG

METARs EXPIRÉS :
  • 312130Z 05005KT CAVOK 10/08 Q1023 NOSIG
  • 312100Z 03003KT CAVOK 09/08 Q1023 NOSIG
  • 312030Z 04001KT CAVOK 10/08 Q1023 NOSIG
  • 312000Z 03005KT CAVOK 10/09 Q1023 NOSIG
  • 311930Z 04003KT CAVOK 11/08 Q1023 NOSIG

TAF COR TAF LDZA
Valide du 31 à 18h jusqu'au 01 à 18h UTC


311745Z 3118/0118 VRB02KT CAVOK TX15/0114Z TN06/0105Z
BECMG 3120/3122 3000 BR
BECMG 3123/0101 0200 FG VV001
BECMG 0109/0111 2500 BR OVC002
BECMG 0111/0114 9999 NSW SCT020
ATIS : +385 1 6-259-214



MET'MAP, la Météo Aéronautique d'un coup d'oeil ! - Copyright ORBIFLY Décembre 2007 - Disclaimer

ORBIFLY MET'MAP TEAM :

Programmation & Développement : Alexandra Zaïnal
Sur une idée originale de : Baudouin d'Aumeries
Assistance à la programmation : Marc-Olivier Méhu
Soutien technique & logistique : Manuel Goepfert

Contact : metmap@orbifly.com




SOURCES & CREDITS :

   NOAA